createdAt,value
2023-03-23T15:58:36.458Z,100492.13
2023-03-23T16:01:27.278Z,100502.78
2023-03-23T16:04:21.127Z,100513.97
2023-03-23T16:07:13.823Z,100526.94
2023-03-23T16:10:03.526Z,100511.75
2023-03-23T16:12:52.288Z,100529.06
2023-03-23T16:15:43.513Z,100527.84
2023-03-23T16:18:32.445Z,100533.56
2023-03-23T16:21:22.354Z,100531.88
2023-03-23T16:24:11.266Z,100525.91
2023-03-23T16:26:59.398Z,100517.47
2023-03-23T16:30:03.244Z,100511.69
2023-03-23T16:32:54.158Z,100517.13
2023-03-23T16:35:44.290Z,100530.38
2023-03-23T16:38:33.864Z,100528.50
2023-03-23T16:41:37.611Z,100514.53
2023-03-23T16:44:25.640Z,100527.78
2023-03-23T16:47:13.663Z,100526.19
2023-03-23T16:50:01.658Z,100525.88
2023-03-23T16:52:50.022Z,100526.09
2023-03-23T16:55:40.615Z,100534.38
2023-03-23T16:58:28.656Z,100528.84
2023-03-23T17:01:16.813Z,100526.41
2023-03-23T17:04:05.321Z,100519.56
2023-03-23T17:06:55.518Z,100518.16
2023-03-23T17:09:43.524Z,100517.59
2023-03-23T17:12:32.937Z,100515.47
2023-03-23T17:15:21.571Z,100518.31
2023-03-23T17:18:09.817Z,100510.16
2023-03-23T17:20:58.009Z,100521.13
2023-03-23T17:23:47.165Z,100513.50
2023-03-23T17:26:37.135Z,100497.03
2023-03-23T17:29:27.028Z,100499.75
2023-03-23T17:32:16.010Z,100505.47
2023-03-23T17:35:05.271Z,100510.63
2023-03-23T17:37:53.383Z,100503.56
2023-03-23T17:40:41.565Z,100507.28
2023-03-23T17:43:29.608Z,100508.19
2023-03-23T17:46:19.178Z,100520.09
2023-03-23T17:49:07.571Z,100521.84
2023-03-23T17:51:58.398Z,100522.72
2023-03-23T17:54:46.655Z,100530.03
2023-03-23T17:57:35.228Z,100556.44
2023-03-23T18:00:23.428Z,100590.84
2023-03-23T18:03:13.151Z,100600.91
2023-03-23T18:06:03.255Z,100628.97
2023-03-23T18:08:51.281Z,100645.94
2023-03-23T18:11:39.505Z,100659.31
2023-03-23T18:14:27.657Z,100684.25
2023-03-23T18:17:15.650Z,100712.50
2023-03-23T18:20:05.869Z,100791.94
2023-03-23T18:22:54.059Z,100813.31
2023-03-23T18:25:42.778Z,100837.28
2023-03-23T18:28:33.480Z,100844.84
2023-03-23T18:31:21.886Z,100869.50
2023-03-23T18:34:10.093Z,100884.19
2023-03-23T18:36:59.454Z,100908.63
2023-03-23T18:39:47.820Z,100917.66
2023-03-23T18:42:35.924Z,100942.06
2023-03-23T18:45:24.062Z,100958.09
2023-03-23T18:48:12.403Z,100971.69
2023-03-23T18:51:02.382Z,100973.91
2023-03-23T18:53:51.831Z,100988.16
2023-03-23T18:56:39.937Z,101012.34
2023-03-23T18:59:30.387Z,101015.97
2023-03-23T19:02:21.928Z,101024.81
2023-03-23T19:05:10.956Z,101052.38
2023-03-23T19:08:10.645Z,101069.44
2023-03-23T19:11:04.236Z,101082.88
2023-03-23T19:14:01.710Z,101113.03
2023-03-23T19:16:52.213Z,101146.69
2023-03-23T19:19:43.038Z,101165.34
2023-03-23T19:22:31.689Z,101218.31
2023-03-23T19:25:20.290Z,101271.78
2023-03-23T19:29:00.595Z,103564.88
2023-03-23T19:31:19.886Z,103711.97
2023-03-23T19:34:08.695Z,103674.28
2023-03-23T19:37:05.345Z,103655.25
2023-03-23T19:39:54.364Z,103646.13
2023-03-23T19:42:42.284Z,103657.50
2023-03-23T19:45:31.716Z,103660.25
2023-03-23T19:48:19.735Z,103669.84
2023-03-23T19:51:09.120Z,103699.25
2023-03-23T19:53:58.259Z,103707.72
2023-03-23T19:56:47.001Z,103697.47
2023-03-23T19:59:35.657Z,103667.78
2023-03-23T20:02:25.075Z,103635.72
2023-03-23T20:05:13.133Z,103597.22
2023-03-23T20:08:02.629Z,103569.56
2023-03-23T20:10:50.956Z,103547.94
2023-03-23T20:13:39.899Z,103514.94
2023-03-23T20:16:28.219Z,103487.66
2023-03-23T20:19:17.835Z,103467.78
2023-03-23T20:22:06.051Z,103424.41
2023-03-23T20:24:54.336Z,103403.59
2023-03-23T20:27:43.590Z,103372.72
2023-03-23T20:30:31.909Z,103352.88
2023-03-23T20:33:20.852Z,103339.22
2023-03-23T20:36:11.014Z,103321.97
2023-03-23T20:38:59.118Z,103315.16
2023-03-23T20:41:48.433Z,103315.47
2023-03-23T20:44:39.552Z,103325.56
2023-03-23T20:47:28.623Z,103338.72
2023-03-23T20:50:16.704Z,103334.31
2023-03-23T20:53:06.061Z,103339.38
2023-03-23T20:55:54.091Z,103335.47
2023-03-23T20:58:42.572Z,103341.16
2023-03-23T21:01:33.110Z,103321.50
2023-03-23T21:04:27.509Z,103321.16
2023-03-23T21:07:16.570Z,103313.38
2023-03-23T21:10:07.293Z,103306.09
2023-03-23T21:12:56.740Z,103275.84
2023-03-23T21:15:45.987Z,103268.03
2023-03-23T21:18:34.959Z,103247.22
2023-03-23T21:21:27.117Z,103217.81
2023-03-23T21:24:16.360Z,103214.41
2023-03-23T21:27:06.330Z,103191.66
2023-03-23T21:29:57.953Z,103170.03
2023-03-23T21:32:49.758Z,103150.22
2023-03-23T21:35:37.848Z,103132.97
2023-03-23T21:38:26.646Z,103113.81
2023-03-23T21:41:15.812Z,103102.09
2023-03-23T21:44:10.382Z,103078.56
2023-03-23T21:47:01.791Z,103057.75
2023-03-23T21:49:50.117Z,103044.59
2023-03-23T21:52:38.654Z,103033.22
2023-03-23T21:55:29.767Z,103024.94
2023-03-23T21:58:18.297Z,103000.91
2023-03-23T22:01:08.701Z,102985.00
2023-03-23T22:03:57.146Z,102968.91
2023-03-23T22:06:46.039Z,102961.91
2023-03-23T22:09:35.304Z,102957.72
2023-03-23T22:12:23.379Z,102942.28
2023-03-23T22:15:15.187Z,102936.63
2023-03-23T22:18:04.927Z,102922.47
2023-03-23T22:20:53.385Z,102893.56
2023-03-23T22:23:42.559Z,102898.63
2023-03-23T22:26:31.520Z,102892.94
2023-03-23T22:29:19.716Z,102906.75
2023-03-23T22:32:07.797Z,102896.34
2023-03-23T22:34:57.195Z,102899.94
2023-03-23T22:37:45.160Z,102891.50
2023-03-23T22:40:33.263Z,102887.44
2023-03-23T22:43:21.252Z,102892.44
2023-03-23T22:46:09.338Z,102897.84
2023-03-23T22:48:57.413Z,102897.66
2023-03-23T22:51:47.009Z,102902.84
2023-03-23T22:54:35.216Z,102905.63
2023-03-23T22:57:23.235Z,102897.84
2023-03-23T23:00:15.197Z,102905.78
2023-03-23T23:03:03.289Z,102909.84
2023-03-23T23:05:52.788Z,102894.91
2023-03-23T23:08:42.846Z,102897.19
2023-03-23T23:11:31.478Z,102901.22
2023-03-23T23:14:19.643Z,102895.84
2023-03-23T23:17:07.667Z,102900.75
2023-03-23T23:19:56.816Z,102893.88
2023-03-23T23:22:45.152Z,102888.38
2023-03-23T23:25:35.777Z,102878.94
2023-03-23T23:28:24.327Z,102878.59
2023-03-23T23:31:27.002Z,102876.19
2023-03-23T23:34:15.422Z,102886.59
2023-03-23T23:37:03.412Z,102883.00
2023-03-23T23:39:51.649Z,102911.44
2023-03-23T23:42:41.184Z,102919.38
2023-03-23T23:45:29.504Z,102922.97
2023-03-23T23:48:18.344Z,102929.78
2023-03-23T23:51:07.035Z,102941.47
2023-03-23T23:53:58.566Z,102943.91
2023-03-23T23:56:47.196Z,102952.34
2023-03-23T23:59:39.618Z,102960.16
